createdAt,value
2022-09-30T00:01:42.314Z,8.80
2022-09-30T00:04:25.209Z,8.80
2022-09-30T00:06:54.147Z,8.80
2022-09-30T00:09:22.101Z,8.80
2022-09-30T00:11:49.363Z,8.90
2022-09-30T00:14:19.465Z,8.90
2022-09-30T00:16:46.882Z,8.90
2022-09-30T00:19:14.633Z,8.90
2022-09-30T00:21:41.879Z,8.90
2022-09-30T00:24:09.036Z,8.90
2022-09-30T00:26:36.276Z,8.90
2022-09-30T00:29:04.303Z,8.90
2022-09-30T00:31:33.989Z,8.90
2022-09-30T00:34:07.459Z,8.90
2022-09-30T00:36:44.972Z,8.90
2022-09-30T00:39:19.046Z,8.90
2022-09-30T00:41:49.408Z,8.90
2022-09-30T00:44:54.946Z,8.90
2022-09-30T00:47:39.954Z,8.90
2022-09-30T00:50:18.962Z,9.00
2022-09-30T00:52:50.741Z,9.00
2022-09-30T00:55:34.050Z,9.00
2022-09-30T00:58:03.078Z,9.00
2022-09-30T01:00:30.316Z,9.00
2022-09-30T01:02:57.551Z,9.10
2022-09-30T01:05:26.719Z,9.00
2022-09-30T01:07:56.615Z,9.00
2022-09-30T01:10:23.600Z,9.00
2022-09-30T01:12:50.881Z,9.00
2022-09-30T01:15:19.609Z,9.00
2022-09-30T01:18:16.093Z,9.00
2022-09-30T01:21:04.264Z,9.00
2022-09-30T01:23:51.903Z,8.90
2022-09-30T01:26:52.363Z,8.90
2022-09-30T01:29:25.046Z,8.90
2022-09-30T01:32:18.637Z,8.90
2022-09-30T01:34:51.092Z,8.90
2022-09-30T01:37:46.414Z,8.90
2022-09-30T01:40:33.392Z,8.90
2022-09-30T01:43:23.094Z,8.90
2022-09-30T01:45:58.562Z,9.00
2022-09-30T01:48:51.936Z,9.00
2022-09-30T01:51:50.157Z,9.00
2022-09-30T01:54:40.052Z,9.00
2022-09-30T01:57:33.133Z,9.00
2022-09-30T02:00:07.969Z,9.00
2022-09-30T02:02:45.294Z,8.90
2022-09-30T02:05:23.793Z,8.80
2022-09-30T02:07:56.456Z,8.70
2022-09-30T02:10:31.400Z,8.60
2022-09-30T02:13:25.307Z,8.60
2022-09-30T02:15:58.068Z,8.60
2022-09-30T02:18:40.427Z,8.50
2022-09-30T02:21:09.555Z,8.50
2022-09-30T02:23:41.016Z,8.50
2022-09-30T02:26:25.235Z,8.50
2022-09-30T02:29:04.127Z,8.50
2022-09-30T02:31:35.119Z,8.40
2022-09-30T02:34:04.780Z,8.40
2022-09-30T02:36:40.187Z,8.20
2022-09-30T02:39:16.108Z,8.10
2022-09-30T02:41:52.320Z,8.00
2022-09-30T02:44:19.806Z,7.80
2022-09-30T02:47:11.136Z,7.70
2022-09-30T02:49:47.470Z,7.60
2022-09-30T02:52:33.436Z,7.40
2022-09-30T02:55:21.788Z,7.30
2022-09-30T02:58:14.731Z,7.20
2022-09-30T03:00:41.919Z,7.10
2022-09-30T03:03:32.547Z,7.10
2022-09-30T03:05:59.718Z,7.10
2022-09-30T03:08:27.049Z,7.30
2022-09-30T03:10:54.013Z,7.40
2022-09-30T03:14:05.213Z,7.50
2022-09-30T03:16:53.342Z,7.50
2022-09-30T03:19:50.855Z,7.60
2022-09-30T03:22:41.510Z,7.70
2022-09-30T03:25:27.195Z,7.90
2022-09-30T03:28:06.360Z,7.90
2022-09-30T03:30:38.370Z,8.00
2022-09-30T03:33:24.343Z,8.10
2022-09-30T03:36:03.235Z,8.10
2022-09-30T03:38:39.203Z,8.20
2022-09-30T03:41:27.285Z,8.30
2022-09-30T03:44:39.281Z,8.30
2022-09-30T03:47:14.418Z,8.30
2022-09-30T03:49:52.623Z,8.30
2022-09-30T03:52:22.542Z,8.30
2022-09-30T03:54:54.302Z,8.30
2022-09-30T03:57:23.907Z,8.30
2022-09-30T03:59:51.991Z,8.30
2022-09-30T04:02:21.918Z,8.40
2022-09-30T04:04:52.118Z,8.30
2022-09-30T04:07:22.750Z,8.30
2022-09-30T04:09:51.636Z,8.30
2022-09-30T04:12:21.255Z,8.30
2022-09-30T04:14:48.448Z,8.30
2022-09-30T04:17:15.396Z,8.30
2022-09-30T04:19:42.330Z,8.30
2022-09-30T04:22:10.149Z,8.20
2022-09-30T04:24:37.171Z,8.10
2022-09-30T04:27:04.327Z,8.00
2022-09-30T04:29:31.536Z,7.90
2022-09-30T04:31:58.507Z,7.80
2022-09-30T04:34:25.471Z,7.70
2022-09-30T04:36:52.464Z,7.60
2022-09-30T04:39:19.432Z,7.50
2022-09-30T04:41:46.438Z,7.40
2022-09-30T04:44:13.662Z,7.30
2022-09-30T04:46:40.688Z,7.20
2022-09-30T04:49:09.442Z,7.10
2022-09-30T04:51:37.301Z,7.00
2022-09-30T04:54:04.886Z,6.90
2022-09-30T04:56:31.851Z,6.80
2022-09-30T04:58:58.775Z,6.80
2022-09-30T05:01:25.786Z,6.70
2022-09-30T05:03:54.523Z,6.70
2022-09-30T05:06:21.501Z,6.70
2022-09-30T05:08:48.476Z,6.70
2022-09-30T05:11:18.637Z,6.80
2022-09-30T05:13:46.574Z,6.90
2022-09-30T05:16:14.837Z,7.00
2022-09-30T05:18:45.826Z,7.10
2022-09-30T05:21:15.568Z,7.10
2022-09-30T05:23:42.684Z,7.20
2022-09-30T05:26:12.166Z,7.20
2022-09-30T05:28:40.979Z,7.20
2022-09-30T05:31:08.508Z,7.30
2022-09-30T05:33:36.138Z,7.30
2022-09-30T05:36:06.394Z,7.40
2022-09-30T05:38:34.199Z,7.40
2022-09-30T05:41:08.947Z,7.50
2022-09-30T05:43:38.623Z,7.60
2022-09-30T05:46:06.035Z,7.70
2022-09-30T05:48:33.156Z,7.70
2022-09-30T05:51:01.820Z,7.80
2022-09-30T05:53:31.300Z,7.80
2022-09-30T05:55:58.667Z,7.90
2022-09-30T05:58:25.609Z,8.00
2022-09-30T06:00:53.017Z,8.20
2022-09-30T06:03:20.180Z,8.40
2022-09-30T06:05:47.361Z,8.70
2022-09-30T06:08:16.586Z,8.90
2022-09-30T06:10:44.856Z,8.90
2022-09-30T06:13:12.166Z,8.90
2022-09-30T06:15:39.782Z,8.80
2022-09-30T06:18:07.456Z,8.80
2022-09-30T06:20:34.673Z,8.90
2022-09-30T06:23:02.014Z,9.20
2022-09-30T06:25:30.081Z,9.30
2022-09-30T06:27:57.745Z,9.60
2022-09-30T06:30:24.748Z,9.80
2022-09-30T06:32:52.210Z,10.20
2022-09-30T06:35:20.606Z,10.50
2022-09-30T06:37:51.649Z,10.50
2022-09-30T06:40:18.489Z,10.50
2022-09-30T06:42:45.456Z,10.50
2022-09-30T06:45:23.375Z,10.50
2022-09-30T06:48:04.492Z,10.40
2022-09-30T06:50:32.664Z,10.30
2022-09-30T06:53:01.461Z,10.20
2022-09-30T06:55:29.925Z,10.20
2022-09-30T06:57:57.512Z,10.20
2022-09-30T07:00:26.364Z,10.40
2022-09-30T07:02:56.270Z,10.60
2022-09-30T07:05:25.829Z,10.60
2022-09-30T07:07:53.985Z,10.50
2022-09-30T07:10:21.476Z,10.50
2022-09-30T07:12:52.252Z,10.60
2022-09-30T07:15:23.393Z,10.50
2022-09-30T07:17:54.953Z,10.50
2022-09-30T07:20:21.873Z,10.50
2022-09-30T07:22:49.023Z,10.60
2022-09-30T07:25:17.484Z,10.80
2022-09-30T07:27:45.056Z,11.00
2022-09-30T07:30:20.400Z,11.10
2022-09-30T07:32:51.646Z,11.10
2022-09-30T07:35:19.386Z,11.10
2022-09-30T07:37:46.408Z,11.20
2022-09-30T07:40:13.517Z,11.40
2022-09-30T07:42:45.993Z,11.40
2022-09-30T07:45:17.179Z,11.20
2022-09-30T07:47:44.228Z,11.10
2022-09-30T07:50:12.424Z,11.30
2022-09-30T07:52:39.324Z,11.50
2022-09-30T07:55:06.548Z,11.70
2022-09-30T07:57:33.501Z,12.00
2022-09-30T08:00:17.012Z,12.10
2022-09-30T08:02:47.526Z,12.10
2022-09-30T08:05:14.559Z,12.20
2022-09-30T08:07:42.777Z,12.50
2022-09-30T08:10:10.170Z,12.60
2022-09-30T08:12:37.700Z,12.60
2022-09-30T08:15:06.253Z,12.70
2022-09-30T08:17:33.202Z,12.80
2022-09-30T08:20:00.320Z,12.60
2022-09-30T08:22:28.291Z,12.40
2022-09-30T08:24:55.288Z,12.50
2022-09-30T08:27:22.318Z,12.80
2022-09-30T08:29:55.115Z,13.20
2022-09-30T08:32:23.666Z,13.50
2022-09-30T08:34:50.594Z,13.60
2022-09-30T08:37:18.521Z,13.60
2022-09-30T08:39:46.899Z,13.40
2022-09-30T08:42:38.691Z,13.40
2022-09-30T08:45:16.210Z,13.50
2022-09-30T08:47:43.088Z,13.50
2022-09-30T08:50:16.347Z,13.50
2022-09-30T08:52:49.450Z,13.70
2022-09-30T08:55:33.572Z,13.70
2022-09-30T08:58:04.247Z,13.80
2022-09-30T09:00:31.522Z,13.80
2022-09-30T09:03:00.712Z,13.80
2022-09-30T09:05:51.736Z,13.90
2022-09-30T09:08:34.284Z,13.90
2022-09-30T09:11:31.004Z,13.80
2022-09-30T09:14:15.130Z,13.70
2022-09-30T09:17:22.541Z,13.70
2022-09-30T09:20:17.620Z,13.80
2022-09-30T09:22:48.983Z,13.70
2022-09-30T09:25:22.137Z,13.80
2022-09-30T09:27:59.932Z,13.80
2022-09-30T09:30:33.640Z,13.90
2022-09-30T09:33:25.900Z,13.90
2022-09-30T09:36:14.757Z,13.90
2022-09-30T09:38:53.546Z,14.00
2022-09-30T09:41:45.217Z,14.00
2022-09-30T09:44:24.868Z,14.10
2022-09-30T09:47:15.281Z,14.30
2022-09-30T09:49:44.905Z,14.40
2022-09-30T09:52:14.795Z,14.50
2022-09-30T09:54:47.691Z,14.30
2022-09-30T09:57:24.871Z,14.20
2022-09-30T10:00:36.071Z,14.00
2022-09-30T10:03:16.256Z,14.10
2022-09-30T10:05:43.252Z,14.50
2022-09-30T10:08:38.794Z,14.80
2022-09-30T10:11:11.374Z,15.10
2022-09-30T10:13:38.232Z,15.30
2022-09-30T10:16:05.618Z,15.40
2022-09-30T10:18:35.870Z,15.30
2022-09-30T10:21:19.465Z,15.20
2022-09-30T10:23:46.389Z,14.90
2022-09-30T10:26:20.799Z,14.80
2022-09-30T10:28:57.770Z,14.60
2022-09-30T10:31:37.846Z,14.40
2022-09-30T10:34:40.310Z,14.10
2022-09-30T10:37:14.665Z,14.00
2022-09-30T10:39:44.514Z,13.80
2022-09-30T10:42:26.532Z,13.80
2022-09-30T10:45:07.612Z,13.70
2022-09-30T10:47:37.212Z,13.70
2022-09-30T10:50:16.864Z,13.80
2022-09-30T10:52:58.696Z,14.00
2022-09-30T10:55:29.379Z,14.10
2022-09-30T10:58:03.969Z,14.20
2022-09-30T11:00:33.910Z,14.20
2022-09-30T11:03:14.766Z,14.20
2022-09-30T11:05:44.412Z,14.20
2022-09-30T11:08:22.192Z,14.20
2022-09-30T11:11:14.263Z,14.40
2022-09-30T11:13:49.423Z,14.80
2022-09-30T11:16:42.487Z,15.10
2022-09-30T11:19:09.479Z,15.10
2022-09-30T11:21:57.110Z,15.00
2022-09-30T11:24:30.090Z,14.80
2022-09-30T11:27:15.412Z,14.60
2022-09-30T11:29:51.185Z,14.60
2022-09-30T11:32:36.511Z,14.70
2022-09-30T11:35:28.099Z,15.00
2022-09-30T11:38:25.129Z,15.40
2022-09-30T11:41:25.139Z,15.70
2022-09-30T11:44:07.393Z,15.80
2022-09-30T11:46:34.306Z,16.00
2022-09-30T11:49:25.544Z,16.20
2022-09-30T11:52:04.143Z,16.30
2022-09-30T11:54:39.952Z,16.30
2022-09-30T11:57:30.222Z,16.40
2022-09-30T11:59:59.976Z,16.60
2022-09-30T12:02:40.272Z,16.60
2022-09-30T12:05:39.817Z,16.50
2022-09-30T12:08:22.638Z,16.20
2022-09-30T12:10:56.411Z,16.00
2022-09-30T12:13:28.084Z,15.80
2022-09-30T12:15:58.367Z,15.70
2022-09-30T12:18:32.286Z,15.70
2022-09-30T12:21:03.385Z,15.80
2022-09-30T12:23:49.451Z,15.80
2022-09-30T12:26:17.212Z,15.70
2022-09-30T12:29:20.725Z,15.50
2022-09-30T12:32:09.657Z,15.50
2022-09-30T12:34:52.776Z,15.60
2022-09-30T12:37:57.258Z,15.70
2022-09-30T12:40:42.130Z,15.70
2022-09-30T12:43:24.135Z,15.90
2022-09-30T12:46:25.964Z,16.00
2022-09-30T12:49:01.702Z,16.10
2022-09-30T12:51:34.685Z,16.10
2022-09-30T12:54:14.785Z,16.00
2022-09-30T12:56:44.279Z,15.80
2022-09-30T12:59:13.280Z,15.50
2022-09-30T13:01:42.386Z,15.20
2022-09-30T13:04:30.789Z,14.90
2022-09-30T13:07:05.878Z,14.70
2022-09-30T13:09:55.206Z,14.50
2022-09-30T13:12:41.593Z,14.30
2022-09-30T13:15:30.188Z,14.20
2022-09-30T13:18:27.124Z,14.30
2022-09-30T13:21:04.904Z,14.50
2022-09-30T13:23:46.582Z,14.60
2022-09-30T13:26:44.856Z,14.70
2022-09-30T13:29:14.831Z,14.80
2022-09-30T13:31:51.710Z,14.80
2022-09-30T13:34:28.764Z,14.80
2022-09-30T13:37:31.076Z,14.80
2022-09-30T13:40:01.154Z,14.70
2022-09-30T13:42:31.868Z,14.70
2022-09-30T13:45:18.612Z,14.70
2022-09-30T13:47:50.220Z,14.70
2022-09-30T13:50:46.609Z,14.70
2022-09-30T13:53:35.085Z,14.80
2022-09-30T13:56:08.441Z,14.70
2022-09-30T13:58:47.095Z,14.80
2022-09-30T14:01:39.213Z,14.70
2022-09-30T14:04:31.089Z,14.60
2022-09-30T14:07:14.194Z,14.60
2022-09-30T14:09:47.457Z,14.50
2022-09-30T14:12:26.570Z,14.40
2022-09-30T14:15:06.827Z,14.20
2022-09-30T14:18:01.337Z,14.20
2022-09-30T14:20:56.000Z,14.10
2022-09-30T14:23:23.002Z,14.10
2022-09-30T14:26:14.686Z,14.10
2022-09-30T14:29:25.804Z,14.10
2022-09-30T14:31:52.842Z,14.00
2022-09-30T14:34:22.818Z,13.90
2022-09-30T14:36:51.754Z,13.90
2022-09-30T14:39:28.720Z,13.90
2022-09-30T14:41:59.189Z,13.80
2022-09-30T14:44:30.149Z,13.70
2022-09-30T14:47:01.560Z,13.40
2022-09-30T14:49:36.155Z,13.30
2022-09-30T14:52:04.100Z,13.20
2022-09-30T14:54:33.222Z,13.00
2022-09-30T14:57:03.046Z,12.90
2022-09-30T14:59:34.648Z,12.80
2022-09-30T15:02:12.892Z,12.70
2022-09-30T15:04:43.127Z,12.60
2022-09-30T15:07:12.065Z,12.50
2022-09-30T15:09:42.378Z,12.30
2022-09-30T15:12:18.066Z,12.20
2022-09-30T15:14:58.021Z,12.10
2022-09-30T15:17:27.328Z,12.00
2022-09-30T15:19:56.063Z,12.00
2022-09-30T15:22:28.998Z,11.90
2022-09-30T15:24:57.727Z,11.90
2022-09-30T15:27:30.100Z,11.80
2022-09-30T15:30:02.221Z,11.70
2022-09-30T15:32:32.953Z,11.60
2022-09-30T15:35:26.544Z,11.50
2022-09-30T15:37:53.705Z,11.40
2022-09-30T15:40:42.059Z,11.30
2022-09-30T15:43:11.923Z,11.20
2022-09-30T15:45:44.241Z,11.20
2022-09-30T15:48:26.502Z,11.10
2022-09-30T15:50:56.111Z,11.10
2022-09-30T15:53:26.877Z,11.00
2022-09-30T15:55:55.861Z,10.90
2022-09-30T15:58:43.391Z,10.80
2022-09-30T16:01:26.859Z,10.70
2022-09-30T16:04:03.942Z,10.60
2022-09-30T16:06:38.344Z,10.50
2022-09-30T16:09:08.762Z,10.30
2022-09-30T16:11:41.177Z,10.20
2022-09-30T16:14:19.778Z,10.10
2022-09-30T16:16:54.801Z,9.90
2022-09-30T16:19:24.477Z,9.80
2022-09-30T16:21:52.773Z,9.60
2022-09-30T16:24:22.696Z,9.50
2022-09-30T16:26:51.733Z,9.40
2022-09-30T16:29:19.048Z,9.30
2022-09-30T16:31:56.003Z,9.20
2022-09-30T16:34:25.971Z,9.00
2022-09-30T16:36:55.380Z,8.90
2022-09-30T16:39:22.393Z,8.80
2022-09-30T16:41:54.369Z,8.70
2022-09-30T16:44:24.552Z,8.60
2022-09-30T16:46:51.828Z,8.40
2022-09-30T16:49:19.850Z,8.30
2022-09-30T16:51:46.832Z,8.20
2022-09-30T16:54:13.927Z,8.10
2022-09-30T16:56:40.843Z,8.00
2022-09-30T16:59:13.928Z,7.90
2022-09-30T17:01:41.829Z,7.80
2022-09-30T17:04:12.876Z,7.70
2022-09-30T17:06:42.286Z,7.60
2022-09-30T17:09:09.261Z,7.60
2022-09-30T17:11:38.074Z,7.50
2022-09-30T17:14:06.014Z,7.40
2022-09-30T17:16:34.180Z,7.40
2022-09-30T17:19:01.376Z,7.30
2022-09-30T17:21:28.561Z,7.20
2022-09-30T17:23:56.087Z,7.20
2022-09-30T17:26:23.515Z,7.20
2022-09-30T17:28:50.516Z,7.10
2022-09-30T17:31:17.528Z,7.10
2022-09-30T17:33:44.542Z,7.10
2022-09-30T17:36:13.279Z,7.00
2022-09-30T17:38:41.037Z,7.00
2022-09-30T17:41:32.027Z,6.90
2022-09-30T17:44:02.433Z,6.80
2022-09-30T17:46:39.498Z,6.70
2022-09-30T17:51:38.465Z,6.60
2022-09-30T17:54:41.526Z,6.60
2022-09-30T17:57:08.566Z,6.50
2022-09-30T17:59:35.485Z,6.50
2022-09-30T18:02:02.496Z,6.50
2022-09-30T18:04:29.547Z,6.40
2022-09-30T18:06:56.924Z,6.40
2022-09-30T18:09:24.214Z,6.40
2022-09-30T18:11:51.233Z,6.30
2022-09-30T18:14:18.161Z,6.30
2022-09-30T18:16:45.224Z,6.30
2022-09-30T18:19:15.331Z,6.40
2022-09-30T18:21:42.382Z,6.40
2022-09-30T18:24:11.236Z,6.40
2022-09-30T18:26:38.216Z,6.40
2022-09-30T18:29:06.286Z,6.50
2022-09-30T18:31:37.651Z,6.50
2022-09-30T18:34:06.815Z,6.50
2022-09-30T18:36:33.935Z,6.60
2022-09-30T18:39:02.551Z,6.70
2022-09-30T18:41:31.898Z,6.70
2022-09-30T18:44:03.097Z,6.70
2022-09-30T18:46:30.766Z,6.70
2022-09-30T18:48:57.931Z,6.70
2022-09-30T18:51:25.298Z,6.70
2022-09-30T18:53:57.979Z,6.70
2022-09-30T18:56:32.099Z,6.60
2022-09-30T18:59:00.684Z,6.60
2022-09-30T19:01:27.974Z,6.50
2022-09-30T19:03:54.975Z,6.50
2022-09-30T19:06:22.253Z,6.40
2022-09-30T19:08:49.301Z,6.40
2022-09-30T19:11:17.651Z,6.40
2022-09-30T19:13:47.991Z,6.20
2022-09-30T19:16:18.961Z,6.20
2022-09-30T19:18:46.159Z,6.10
2022-09-30T19:21:16.222Z,6.10
2022-09-30T19:23:43.196Z,6.00
2022-09-30T19:26:10.919Z,6.00
2022-09-30T19:28:38.336Z,6.00
2022-09-30T19:31:17.282Z,6.00
2022-09-30T19:33:54.691Z,6.00
2022-09-30T19:36:24.106Z,5.90
2022-09-30T19:38:54.327Z,5.80
2022-09-30T19:41:24.223Z,5.70
2022-09-30T19:43:51.286Z,5.70
2022-09-30T19:46:21.611Z,5.60
2022-09-30T19:48:48.777Z,5.60
2022-09-30T19:51:18.923Z,5.60
2022-09-30T19:54:00.006Z,5.50
2022-09-30T19:56:31.420Z,5.50
2022-09-30T19:59:00.843Z,5.50
2022-09-30T20:01:37.414Z,5.40
2022-09-30T20:04:05.820Z,5.40
2022-09-30T20:06:33.611Z,5.30
2022-09-30T20:09:02.479Z,5.30
2022-09-30T20:11:35.629Z,5.20
2022-09-30T20:14:24.280Z,5.20
2022-09-30T20:16:51.777Z,5.20
2022-09-30T20:19:19.874Z,5.20
2022-09-30T20:21:47.281Z,5.20
2022-09-30T20:24:19.532Z,5.20
2022-09-30T20:26:47.480Z,5.20
2022-09-30T20:29:15.265Z,5.10
2022-09-30T20:31:43.086Z,5.10
2022-09-30T20:34:15.521Z,5.00
2022-09-30T20:36:42.499Z,5.00
2022-09-30T20:39:10.438Z,5.10
2022-09-30T20:41:39.418Z,5.10
2022-09-30T20:44:09.069Z,5.10
2022-09-30T20:46:36.119Z,5.00
2022-09-30T20:49:04.292Z,5.00
2022-09-30T20:51:32.590Z,4.90
2022-09-30T20:54:04.044Z,4.90
2022-09-30T20:56:49.566Z,4.80
2022-09-30T20:59:18.196Z,4.80
2022-09-30T21:01:45.162Z,4.80
2022-09-30T21:04:12.642Z,4.80
2022-09-30T21:06:39.687Z,4.70
2022-09-30T21:09:06.641Z,4.80
2022-09-30T21:11:34.033Z,4.80
2022-09-30T21:14:01.883Z,4.80
2022-09-30T21:16:29.664Z,4.80
2022-09-30T21:18:58.067Z,4.80
2022-09-30T21:21:26.928Z,4.70
2022-09-30T21:23:59.512Z,4.70
2022-09-30T21:26:26.964Z,4.70
2022-09-30T21:28:54.296Z,4.70
2022-09-30T21:31:25.148Z,4.70
2022-09-30T21:33:56.544Z,4.80
2022-09-30T21:36:24.389Z,4.80
2022-09-30T21:38:52.148Z,4.80
2022-09-30T21:41:19.965Z,4.70
2022-09-30T21:43:48.158Z,4.70
2022-09-30T21:46:17.045Z,4.60
2022-09-30T21:48:45.555Z,4.60
2022-09-30T21:51:13.977Z,4.60
2022-09-30T21:53:41.994Z,4.60
2022-09-30T21:56:11.593Z,4.60
2022-09-30T21:58:38.920Z,4.60
2022-09-30T22:01:07.072Z,4.60
2022-09-30T22:03:39.918Z,4.60
2022-09-30T22:06:08.792Z,4.60
2022-09-30T22:08:40.370Z,4.60
2022-09-30T22:11:24.653Z,4.70
2022-09-30T22:13:56.560Z,4.70
2022-09-30T22:16:27.119Z,4.80
2022-09-30T22:18:55.944Z,4.80
2022-09-30T22:21:23.229Z,4.90
2022-09-30T22:23:50.208Z,4.90
2022-09-30T22:26:19.743Z,5.00
2022-09-30T22:28:48.492Z,5.00
2022-09-30T22:31:20.607Z,5.00
2022-09-30T22:34:07.027Z,5.00
2022-09-30T22:36:53.162Z,5.00
2022-09-30T22:39:23.937Z,5.00
2022-09-30T22:41:55.544Z,5.00
2022-09-30T22:44:25.592Z,5.10
2022-09-30T22:46:59.585Z,5.00
2022-09-30T22:49:27.854Z,5.00
2022-09-30T22:51:57.916Z,5.10
2022-09-30T22:54:26.191Z,5.00
2022-09-30T22:56:55.016Z,5.10
2022-09-30T22:59:25.757Z,5.10
2022-09-30T23:01:52.723Z,5.10
2022-09-30T23:04:19.887Z,5.10
2022-09-30T23:06:52.508Z,5.20
2022-09-30T23:09:20.956Z,5.20
2022-09-30T23:11:48.664Z,5.20
2022-09-30T23:14:18.219Z,5.30
2022-09-30T23:16:45.536Z,5.40
2022-09-30T23:19:12.590Z,5.40
2022-09-30T23:21:40.159Z,5.50
2022-09-30T23:24:07.280Z,5.50
2022-09-30T23:26:34.424Z,5.60
2022-09-30T23:29:04.459Z,5.60
2022-09-30T23:31:32.229Z,5.70
2022-09-30T23:34:01.459Z,5.80
2022-09-30T23:36:33.904Z,5.80
2022-09-30T23:39:03.139Z,5.90
2022-09-30T23:41:32.187Z,5.90
2022-09-30T23:43:59.534Z,6.00
2022-09-30T23:46:26.669Z,6.00
2022-09-30T23:48:53.673Z,6.10
2022-09-30T23:51:20.610Z,6.10
2022-09-30T23:53:47.798Z,6.00
2022-09-30T23:56:17.490Z,6.10
2022-09-30T23:58:45.302Z,6.10
